sensor_id;sensor_type;location;lat;lon;timestamp;pressure;altitude;pressure_sealevel;temperature;humidity
61682;BME280;47577;43.610;25.010;2023-03-25T00:00:14;100003.72;;;6.83;77.59
61682;BME280;47577;43.610;25.010;2023-03-25T00:02:42;100004.88;;;6.73;78.00
61682;BME280;47577;43.610;25.010;2023-03-25T00:05:09;100006.38;;;6.83;77.96
61682;BME280;47577;43.610;25.010;2023-03-25T00:07:35;100004.91;;;6.71;78.47
61682;BME280;47577;43.610;25.010;2023-03-25T00:10:01;100010.50;;;6.57;80.05
61682;BME280;47577;43.610;25.010;2023-03-25T00:12:27;100007.75;;;6.62;79.45
61682;BME280;47577;43.610;25.010;2023-03-25T00:14:52;99998.47;;;6.82;78.90
61682;BME280;47577;43.610;25.010;2023-03-25T00:17:22;100001.84;;;6.88;77.79
61682;BME280;47577;43.610;25.010;2023-03-25T00:19:50;100001.19;;;6.78;77.81
61682;BME280;47577;43.610;25.010;2023-03-25T00:22:17;100000.38;;;6.76;78.06
61682;BME280;47577;43.610;25.010;2023-03-25T00:24:43;99998.53;;;6.80;77.40
61682;BME280;47577;43.610;25.010;2023-03-25T00:27:08;99994.28;;;6.74;77.91
61682;BME280;47577;43.610;25.010;2023-03-25T00:29:33;99995.13;;;6.75;78.36
61682;BME280;47577;43.610;25.010;2023-03-25T00:31:59;99989.94;;;6.70;77.82
61682;BME280;47577;43.610;25.010;2023-03-25T00:34:24;99996.78;;;6.81;78.33
61682;BME280;47577;43.610;25.010;2023-03-25T00:36:50;99992.44;;;6.76;79.05
61682;BME280;47577;43.610;25.010;2023-03-25T00:39:15;99991.75;;;6.70;78.37
61682;BME280;47577;43.610;25.010;2023-03-25T00:41:41;99993.53;;;6.69;78.64
61682;BME280;47577;43.610;25.010;2023-03-25T00:44:08;99991.97;;;6.59;79.04
61682;BME280;47577;43.610;25.010;2023-03-25T00:46:36;99985.88;;;6.57;78.70
61682;BME280;47577;43.610;25.010;2023-03-25T00:49:02;99985.94;;;6.54;79.27
61682;BME280;47577;43.610;25.010;2023-03-25T00:51:27;99990.19;;;6.61;79.09
61682;BME280;47577;43.610;25.010;2023-03-25T00:53:55;99988.44;;;6.60;79.14
61682;BME280;47577;43.610;25.010;2023-03-25T00:56:24;99984.00;;;6.62;78.45
61682;BME280;47577;43.610;25.010;2023-03-25T00:58:50;99978.63;;;6.65;78.71
61682;BME280;47577;43.610;25.010;2023-03-25T01:01:19;99976.16;;;6.57;78.72
61682;BME280;47577;43.610;25.010;2023-03-25T01:03:48;99969.00;;;6.64;79.87
61682;BME280;47577;43.610;25.010;2023-03-25T01:06:14;99972.38;;;6.69;80.14
61682;BME280;47577;43.610;25.010;2023-03-25T01:08:41;99969.22;;;6.89;79.52
61682;BME280;47577;43.610;25.010;2023-03-25T01:11:18;99972.69;;;6.91;79.47
61682;BME280;47577;43.610;25.010;2023-03-25T01:13:44;99969.78;;;7.02;79.04
61682;BME280;47577;43.610;25.010;2023-03-25T01:16:10;99973.34;;;7.00;78.39
61682;BME280;47577;43.610;25.010;2023-03-25T01:18:35;99962.63;;;7.06;78.65
61682;BME280;47577;43.610;25.010;2023-03-25T01:21:03;99956.28;;;7.13;78.74
61682;BME280;47577;43.610;25.010;2023-03-25T01:23:28;99963.28;;;7.14;77.71
61682;BME280;47577;43.610;25.010;2023-03-25T01:25:54;99964.38;;;7.07;77.94
61682;BME280;47577;43.610;25.010;2023-03-25T01:28:19;99961.97;;;6.98;78.79
61682;BME280;47577;43.610;25.010;2023-03-25T01:30:45;99961.41;;;6.85;79.12
61682;BME280;47577;43.610;25.010;2023-03-25T01:33:10;99958.84;;;6.82;79.48
61682;BME280;47577;43.610;25.010;2023-03-25T01:35:39;99951.50;;;6.93;80.62
61682;BME280;47577;43.610;25.010;2023-03-25T01:38:05;99944.53;;;6.90;80.88
61682;BME280;47577;43.610;25.010;2023-03-25T01:40:30;99939.84;;;7.02;80.38
61682;BME280;47577;43.610;25.010;2023-03-25T01:42:56;99938.09;;;7.01;79.86
61682;BME280;47577;43.610;25.010;2023-03-25T01:45:23;99930.84;;;7.09;79.25
61682;BME280;47577;43.610;25.010;2023-03-25T01:47:50;99929.91;;;7.11;79.49
61682;BME280;47577;43.610;25.010;2023-03-25T01:50:18;99926.41;;;7.09;79.49
61682;BME280;47577;43.610;25.010;2023-03-25T01:52:46;99924.47;;;7.16;79.52
61682;BME280;47577;43.610;25.010;2023-03-25T01:55:15;99922.56;;;7.21;78.71
61682;BME280;47577;43.610;25.010;2023-03-25T01:57:42;99912.72;;;7.26;78.42
61682;BME280;47577;43.610;25.010;2023-03-25T02:00:10;99914.41;;;7.30;78.32
61682;BME280;47577;43.610;25.010;2023-03-25T02:02:37;99909.09;;;7.30;77.61
61682;BME280;47577;43.610;25.010;2023-03-25T02:05:06;99900.41;;;7.25;78.43
61682;BME280;47577;43.610;25.010;2023-03-25T02:07:34;99911.06;;;7.22;77.38
61682;BME280;47577;43.610;25.010;2023-03-25T02:10:04;99898.69;;;7.24;77.85
61682;BME280;47577;43.610;25.010;2023-03-25T02:12:30;99899.56;;;7.25;77.56
61682;BME280;47577;43.610;25.010;2023-03-25T02:14:56;99891.50;;;7.29;77.54
61682;BME280;47577;43.610;25.010;2023-03-25T02:22:42;99889.66;;;7.31;77.06
61682;BME280;47577;43.610;25.010;2023-03-25T02:38:20;99908.88;;;7.07;78.27
61682;BME280;47577;43.610;25.010;2023-03-25T02:40:55;99902.72;;;7.06;78.22
61682;BME280;47577;43.610;25.010;2023-03-25T02:43:29;99902.00;;;7.00;78.92
61682;BME280;47577;43.610;25.010;2023-03-25T02:45:56;99896.31;;;6.82;78.71
61682;BME280;47577;43.610;25.010;2023-03-25T02:48:29;99896.44;;;6.77;78.55
61682;BME280;47577;43.610;25.010;2023-03-25T02:50:57;99892.97;;;6.75;79.06
61682;BME280;47577;43.610;25.010;2023-03-25T02:53:26;99898.75;;;6.55;79.04
61682;BME280;47577;43.610;25.010;2023-03-25T02:55:53;99885.88;;;6.43;79.81
61682;BME280;47577;43.610;25.010;2023-03-25T02:58:22;99891.28;;;6.37;80.84
61682;BME280;47577;43.610;25.010;2023-03-25T03:00:48;99886.16;;;6.31;81.11
61682;BME280;47577;43.610;25.010;2023-03-25T03:03:16;99887.75;;;6.36;80.26
61682;BME280;47577;43.610;25.010;2023-03-25T03:05:43;99888.75;;;6.32;80.65
61682;BME280;47577;43.610;25.010;2023-03-25T03:10:42;99878.47;;;6.20;82.01
61682;BME280;47577;43.610;25.010;2023-03-25T03:15:52;99871.28;;;6.27;81.09
61682;BME280;47577;43.610;25.010;2023-03-25T03:18:26;99863.41;;;6.25;80.80
61682;BME280;47577;43.610;25.010;2023-03-25T03:21:04;99868.53;;;6.31;81.29
61682;BME280;47577;43.610;25.010;2023-03-25T03:26:10;99870.47;;;6.25;80.98
61682;BME280;47577;43.610;25.010;2023-03-25T03:28:48;99872.25;;;6.24;81.44
61682;BME280;47577;43.610;25.010;2023-03-25T03:33:56;99867.13;;;6.16;81.98
61682;BME280;47577;43.610;25.010;2023-03-25T03:36:30;99873.88;;;6.28;80.70
61682;BME280;47577;43.610;25.010;2023-03-25T03:39:05;99869.19;;;6.39;80.02
61682;BME280;47577;43.610;25.010;2023-03-25T03:41:34;99868.13;;;6.48;79.10
61682;BME280;47577;43.610;25.010;2023-03-25T03:44:03;99870.69;;;6.51;79.25
61682;BME280;47577;43.610;25.010;2023-03-25T03:46:32;99867.00;;;6.57;79.45
61682;BME280;47577;43.610;25.010;2023-03-25T03:48:58;99869.53;;;6.62;78.98
61682;BME280;47577;43.610;25.010;2023-03-25T03:51:27;99872.88;;;6.68;78.95
61682;BME280;47577;43.610;25.010;2023-03-25T03:56:27;99874.16;;;6.86;78.54
61682;BME280;47577;43.610;25.010;2023-03-25T03:59:01;99873.97;;;6.94;77.61
61682;BME280;47577;43.610;25.010;2023-03-25T04:01:33;99877.19;;;7.05;77.23
61682;BME280;47577;43.610;25.010;2023-03-25T04:04:03;99879.81;;;7.05;77.50
61682;BME280;47577;43.610;25.010;2023-03-25T04:09:01;99869.97;;;7.10;76.93
61682;BME280;47577;43.610;25.010;2023-03-25T04:11:42;99876.94;;;7.14;76.39
61682;BME280;47577;43.610;25.010;2023-03-25T04:14:09;99881.41;;;7.11;76.83
61682;BME280;47577;43.610;25.010;2023-03-25T04:16:35;99882.31;;;7.11;76.83
61682;BME280;47577;43.610;25.010;2023-03-25T04:19:02;99885.84;;;7.10;77.80
61682;BME280;47577;43.610;25.010;2023-03-25T04:21:29;99880.09;;;6.94;79.45
61682;BME280;47577;43.610;25.010;2023-03-25T04:23:55;99877.50;;;6.93;80.00
61682;BME280;47577;43.610;25.010;2023-03-25T04:26:20;99878.88;;;6.75;81.33
61682;BME280;47577;43.610;25.010;2023-03-25T04:28:45;99878.09;;;6.71;81.68
61682;BME280;47577;43.610;25.010;2023-03-25T04:31:14;99878.06;;;6.73;81.51
61682;BME280;47577;43.610;25.010;2023-03-25T04:33:41;99887.19;;;6.94;80.82
61682;BME280;47577;43.610;25.010;2023-03-25T04:36:11;99886.75;;;7.09;79.62
61682;BME280;47577;43.610;25.010;2023-03-25T04:38:37;99890.16;;;7.14;78.89
61682;BME280;47577;43.610;25.010;2023-03-25T04:41:03;99889.13;;;7.19;80.01
61682;BME280;47577;43.610;25.010;2023-03-25T04:43:31;99893.44;;;7.23;79.50
61682;BME280;47577;43.610;25.010;2023-03-25T04:45:56;99889.69;;;7.30;79.33
61682;BME280;47577;43.610;25.010;2023-03-25T04:48:30;99886.19;;;7.29;78.79
61682;BME280;47577;43.610;25.010;2023-03-25T04:50:58;99889.94;;;7.21;79.66
61682;BME280;47577;43.610;25.010;2023-03-25T04:53:27;99894.34;;;7.22;80.21
61682;BME280;47577;43.610;25.010;2023-03-25T04:55:53;99903.09;;;7.24;80.65
61682;BME280;47577;43.610;25.010;2023-03-25T04:58:19;99910.88;;;7.30;80.00
61682;BME280;47577;43.610;25.010;2023-03-25T05:00:45;99910.75;;;7.35;80.70
61682;BME280;47577;43.610;25.010;2023-03-25T05:03:13;99916.75;;;7.40;81.29
61682;BME280;47577;43.610;25.010;2023-03-25T05:05:40;99915.72;;;7.45;81.34
61682;BME280;47577;43.610;25.010;2023-03-25T05:08:06;99920.78;;;7.53;81.38
61682;BME280;47577;43.610;25.010;2023-03-25T05:10:32;99907.34;;;7.61;81.80
61682;BME280;47577;43.610;25.010;2023-03-25T05:12:59;99903.28;;;7.79;80.46
61682;BME280;47577;43.610;25.010;2023-03-25T05:15:25;99916.00;;;7.96;80.33
61682;BME280;47577;43.610;25.010;2023-03-25T05:17:51;99909.44;;;8.08;80.58
61682;BME280;47577;43.610;25.010;2023-03-25T05:20:16;99908.88;;;8.26;79.98
61682;BME280;47577;43.610;25.010;2023-03-25T05:22:42;99915.47;;;8.41;79.17
61682;BME280;47577;43.610;25.010;2023-03-25T05:25:09;99921.25;;;8.54;78.22
61682;BME280;47577;43.610;25.010;2023-03-25T05:27:35;99923.88;;;8.55;76.58
61682;BME280;47577;43.610;25.010;2023-03-25T05:30:01;99928.59;;;8.72;77.50
61682;BME280;47577;43.610;25.010;2023-03-25T05:32:27;99926.19;;;8.91;78.40
61682;BME280;47577;43.610;25.010;2023-03-25T05:34:59;99926.53;;;9.07;76.50
61682;BME280;47577;43.610;25.010;2023-03-25T05:37:24;99926.84;;;9.23;77.71
61682;BME280;47577;43.610;25.010;2023-03-25T05:39:50;99928.03;;;9.40;74.86
61682;BME280;47577;43.610;25.010;2023-03-25T05:42:16;99920.66;;;9.48;75.91
61682;BME280;47577;43.610;25.010;2023-03-25T05:44:41;99917.47;;;9.62;74.34
61682;BME280;47577;43.610;25.010;2023-03-25T05:47:19;99907.31;;;9.73;73.85
61682;BME280;47577;43.610;25.010;2023-03-25T05:49:46;99911.31;;;9.85;73.79
61682;BME280;47577;43.610;25.010;2023-03-25T05:52:11;99915.59;;;9.87;73.08
61682;BME280;47577;43.610;25.010;2023-03-25T05:54:37;99914.47;;;9.95;73.30
61682;BME280;47577;43.610;25.010;2023-03-25T05:57:08;99922.75;;;10.09;74.80
61682;BME280;47577;43.610;25.010;2023-03-25T05:59:35;99919.84;;;10.15;73.74
61682;BME280;47577;43.610;25.010;2023-03-25T06:02:12;99912.56;;;10.20;74.37
61682;BME280;47577;43.610;25.010;2023-03-25T06:04:38;99920.53;;;10.20;72.59
61682;BME280;47577;43.610;25.010;2023-03-25T06:07:14;99915.91;;;10.25;74.46
61682;BME280;47577;43.610;25.010;2023-03-25T06:09:48;99918.44;;;10.29;73.97
61682;BME280;47577;43.610;25.010;2023-03-25T06:12:18;99920.50;;;10.44;73.42
61682;BME280;47577;43.610;25.010;2023-03-25T06:14:44;99915.91;;;10.48;73.52
61682;BME280;47577;43.610;25.010;2023-03-25T06:17:11;99916.53;;;10.54;73.13
61682;BME280;47577;43.610;25.010;2023-03-25T06:19:36;99916.94;;;10.66;73.23
61682;BME280;47577;43.610;25.010;2023-03-25T06:22:05;99919.34;;;10.72;74.13
61682;BME280;47577;43.610;25.010;2023-03-25T06:24:33;99919.50;;;10.89;74.32
61682;BME280;47577;43.610;25.010;2023-03-25T06:26:59;99915.31;;;11.04;73.64
61682;BME280;47577;43.610;25.010;2023-03-25T06:29:24;99918.31;;;11.17;72.94
61682;BME280;47577;43.610;25.010;2023-03-25T06:31:50;99914.72;;;11.39;71.60
61682;BME280;47577;43.610;25.010;2023-03-25T06:34:15;99911.28;;;11.56;70.99
61682;BME280;47577;43.610;25.010;2023-03-25T06:36:41;99904.31;;;11.72;71.09
61682;BME280;47577;43.610;25.010;2023-03-25T06:39:06;99905.19;;;11.92;70.68
61682;BME280;47577;43.610;25.010;2023-03-25T06:41:32;99907.28;;;12.04;68.45
61682;BME280;47577;43.610;25.010;2023-03-25T06:44:00;99905.63;;;12.20;71.04
61682;BME280;47577;43.610;25.010;2023-03-25T06:46:25;99897.88;;;12.33;71.83
61682;BME280;47577;43.610;25.010;2023-03-25T06:48:51;99917.66;;;12.47;72.59
61682;BME280;47577;43.610;25.010;2023-03-25T06:51:16;99912.81;;;12.55;73.50
61682;BME280;47577;43.610;25.010;2023-03-25T06:53:41;99920.13;;;12.69;71.98
61682;BME280;47577;43.610;25.010;2023-03-25T06:56:07;99916.28;;;12.74;71.29
61682;BME280;47577;43.610;25.010;2023-03-25T06:58:33;99924.59;;;12.86;70.29
61682;BME280;47577;43.610;25.010;2023-03-25T07:00:59;99928.72;;;12.93;70.89
61682;BME280;47577;43.610;25.010;2023-03-25T07:03:28;99930.19;;;12.98;71.59
61682;BME280;47577;43.610;25.010;2023-03-25T07:05:53;99935.75;;;13.11;70.80
61682;BME280;47577;43.610;25.010;2023-03-25T07:08:19;99933.94;;;13.12;70.77
61682;BME280;47577;43.610;25.010;2023-03-25T07:10:44;99934.66;;;13.15;70.79
61682;BME280;47577;43.610;25.010;2023-03-25T07:13:10;99933.47;;;13.21;71.25
61682;BME280;47577;43.610;25.010;2023-03-25T07:15:35;99943.47;;;13.35;69.38
61682;BME280;47577;43.610;25.010;2023-03-25T07:18:01;99935.91;;;13.43;69.83
61682;BME280;47577;43.610;25.010;2023-03-25T07:20:26;99945.94;;;13.56;69.63
61682;BME280;47577;43.610;25.010;2023-03-25T07:22:55;99938.75;;;13.74;69.16
61682;BME280;47577;43.610;25.010;2023-03-25T07:25:20;99941.00;;;13.81;67.20
61682;BME280;47577;43.610;25.010;2023-03-25T07:27:46;99943.94;;;13.93;68.88
61682;BME280;47577;43.610;25.010;2023-03-25T07:30:11;99939.84;;;14.03;68.22
61682;BME280;47577;43.610;25.010;2023-03-25T07:32:38;99948.81;;;14.18;65.86
61682;BME280;47577;43.610;25.010;2023-03-25T07:35:04;99948.63;;;14.21;65.29
61682;BME280;47577;43.610;25.010;2023-03-25T07:37:29;99936.97;;;14.38;65.02
61682;BME280;47577;43.610;25.010;2023-03-25T07:39:55;99936.72;;;14.42;65.09
61682;BME280;47577;43.610;25.010;2023-03-25T07:42:20;99930.16;;;14.48;63.69
61682;BME280;47577;43.610;25.010;2023-03-25T07:44:46;99932.06;;;14.62;63.92
61682;BME280;47577;43.610;25.010;2023-03-25T07:47:11;99927.75;;;14.90;68.22
61682;BME280;47577;43.610;25.010;2023-03-25T07:49:36;99930.13;;;15.10;67.27
61682;BME280;47577;43.610;25.010;2023-03-25T07:52:05;99929.47;;;15.21;60.33
61682;BME280;47577;43.610;25.010;2023-03-25T07:54:30;99927.19;;;15.29;60.54
61682;BME280;47577;43.610;25.010;2023-03-25T07:56:56;99925.56;;;15.27;62.02
61682;BME280;47577;43.610;25.010;2023-03-25T07:59:21;99927.19;;;15.29;60.60
61682;BME280;47577;43.610;25.010;2023-03-25T08:01:47;99933.91;;;15.51;63.04
61682;BME280;47577;43.610;25.010;2023-03-25T08:04:12;99925.13;;;15.63;61.13
61682;BME280;47577;43.610;25.010;2023-03-25T08:06:38;99925.78;;;15.67;57.57
61682;BME280;47577;43.610;25.010;2023-03-25T08:09:04;99926.94;;;15.77;59.83
61682;BME280;47577;43.610;25.010;2023-03-25T08:11:30;99924.56;;;15.87;61.31
61682;BME280;47577;43.610;25.010;2023-03-25T08:13:56;99918.59;;;15.96;62.22
61682;BME280;47577;43.610;25.010;2023-03-25T08:16:21;99921.28;;;16.11;63.11
61682;BME280;47577;43.610;25.010;2023-03-25T08:18:46;99917.47;;;16.27;62.14
61682;BME280;47577;43.610;25.010;2023-03-25T08:21:12;99913.34;;;16.36;60.03
61682;BME280;47577;43.610;25.010;2023-03-25T08:23:38;99908.69;;;16.53;61.46
61682;BME280;47577;43.610;25.010;2023-03-25T08:26:03;99913.84;;;16.56;58.58
61682;BME280;47577;43.610;25.010;2023-03-25T08:28:29;99918.97;;;16.73;60.17
61682;BME280;47577;43.610;25.010;2023-03-25T08:30:55;99921.00;;;16.82;53.32
61682;BME280;47577;43.610;25.010;2023-03-25T08:33:22;99915.91;;;16.92;57.73
61682;BME280;47577;43.610;25.010;2023-03-25T08:35:51;99909.94;;;17.14;53.87
61682;BME280;47577;43.610;25.010;2023-03-25T08:38:16;99909.41;;;17.22;52.00
61682;BME280;47577;43.610;25.010;2023-03-25T08:40:42;99912.66;;;17.40;50.14
61682;BME280;47577;43.610;25.010;2023-03-25T08:43:08;99913.19;;;17.45;48.89
61682;BME280;47577;43.610;25.010;2023-03-25T08:45:34;99907.59;;;17.48;52.10
61682;BME280;47577;43.610;25.010;2023-03-25T08:48:01;99908.84;;;17.68;50.16
61682;BME280;47577;43.610;25.010;2023-03-25T08:50:26;99910.16;;;17.76;50.83
61682;BME280;47577;43.610;25.010;2023-03-25T08:52:52;99910.47;;;17.84;50.19
61682;BME280;47577;43.610;25.010;2023-03-25T08:55:22;99905.72;;;17.75;49.77
61682;BME280;47577;43.610;25.010;2023-03-25T08:57:47;99908.94;;;17.80;50.55
61682;BME280;47577;43.610;25.010;2023-03-25T09:00:13;99901.28;;;17.86;48.91
61682;BME280;47577;43.610;25.010;2023-03-25T09:02:38;99905.28;;;18.06;49.83
61682;BME280;47577;43.610;25.010;2023-03-25T09:05:05;99902.38;;;18.09;49.99
61682;BME280;47577;43.610;25.010;2023-03-25T09:07:30;99904.84;;;18.13;50.90
61682;BME280;47577;43.610;25.010;2023-03-25T09:09:56;99907.59;;;18.24;50.69
61682;BME280;47577;43.610;25.010;2023-03-25T09:12:21;99916.94;;;18.31;48.24
61682;BME280;47577;43.610;25.010;2023-03-25T09:14:47;99907.00;;;18.32;49.38
61682;BME280;47577;43.610;25.010;2023-03-25T09:17:12;99911.16;;;18.49;48.25
61682;BME280;47577;43.610;25.010;2023-03-25T09:19:38;99903.75;;;18.39;47.97
61682;BME280;47577;43.610;25.010;2023-03-25T09:22:03;99912.50;;;18.54;48.79
61682;BME280;47577;43.610;25.010;2023-03-25T09:24:29;99901.34;;;18.48;49.48
61682;BME280;47577;43.610;25.010;2023-03-25T09:26:59;99898.81;;;18.33;48.88
61682;BME280;47577;43.610;25.010;2023-03-25T09:29:25;99896.41;;;18.17;50.86
61682;BME280;47577;43.610;25.010;2023-03-25T09:31:50;99902.16;;;18.37;50.85
61682;BME280;47577;43.610;25.010;2023-03-25T09:34:16;99901.34;;;18.48;49.90
61682;BME280;47577;43.610;25.010;2023-03-25T09:36:41;99902.91;;;18.39;50.86
61682;BME280;47577;43.610;25.010;2023-03-25T09:39:07;99904.59;;;18.40;48.54
61682;BME280;47577;43.610;25.010;2023-03-25T09:45:20;99893.88;;;18.75;50.08
61682;BME280;47577;43.610;25.010;2023-03-25T09:47:13;99881.25;;;18.89;46.52
61682;BME280;47577;43.610;25.010;2023-03-25T09:49:41;99880.44;;;19.11;47.31
61682;BME280;47577;43.610;25.010;2023-03-25T09:52:15;99880.22;;;19.25;46.03
61682;BME280;47577;43.610;25.010;2023-03-25T09:54:47;99870.53;;;19.34;45.65
61682;BME280;47577;43.610;25.010;2023-03-25T09:57:16;99876.31;;;19.29;47.92
61682;BME280;47577;43.610;25.010;2023-03-25T09:59:43;99871.53;;;19.33;46.75
61682;BME280;47577;43.610;25.010;2023-03-25T10:15:28;99842.13;;;20.41;42.08
61682;BME280;47577;43.610;25.010;2023-03-25T10:18:14;99843.88;;;20.63;40.60
61682;BME280;47577;43.610;25.010;2023-03-25T10:26:14;99822.75;;;20.90;40.97
61682;BME280;47577;43.610;25.010;2023-03-25T10:28:44;99815.03;;;21.06;37.77
61682;BME280;47577;43.610;25.010;2023-03-25T10:31:13;99816.09;;;20.94;36.62
61682;BME280;47577;43.610;25.010;2023-03-25T10:33:42;99815.91;;;20.86;37.18
61682;BME280;47577;43.610;25.010;2023-03-25T10:36:12;99818.19;;;20.90;38.14
61682;BME280;47577;43.610;25.010;2023-03-25T10:38:42;99819.50;;;20.96;39.09
61682;BME280;47577;43.610;25.010;2023-03-25T10:41:17;99823.94;;;20.76;40.63
61682;BME280;47577;43.610;25.010;2023-03-25T10:43:44;99796.59;;;20.90;39.46
61682;BME280;47577;43.610;25.010;2023-03-25T10:46:18;99804.00;;;21.19;40.32
61682;BME280;47577;43.610;25.010;2023-03-25T10:48:48;99810.88;;;21.33;39.72
61682;BME280;47577;43.610;25.010;2023-03-25T10:51:21;99800.72;;;21.46;39.47
61682;BME280;47577;43.610;25.010;2023-03-25T10:53:50;99799.38;;;21.62;42.64
61682;BME280;47577;43.610;25.010;2023-03-25T10:58:53;99791.34;;;21.50;41.23
61682;BME280;47577;43.610;25.010;2023-03-25T11:01:26;99798.13;;;21.76;38.88
61682;BME280;47577;43.610;25.010;2023-03-25T11:03:54;99799.69;;;21.78;36.38
61682;BME280;47577;43.610;25.010;2023-03-25T11:06:28;99795.41;;;21.35;34.73
61682;BME280;47577;43.610;25.010;2023-03-25T11:09:22;99798.69;;;21.69;35.61
61682;BME280;47577;43.610;25.010;2023-03-25T11:11:42;99795.41;;;21.35;34.39
61682;BME280;47577;43.610;25.010;2023-03-25T11:14:09;99795.28;;;21.36;35.13
61682;BME280;47577;43.610;25.010;2023-03-25T11:19:23;99794.63;;;21.54;37.63
61682;BME280;47577;43.610;25.010;2023-03-25T11:21:52;99794.50;;;21.25;34.88
61682;BME280;47577;43.610;25.010;2023-03-25T11:24:18;99788.47;;;21.11;35.42
61682;BME280;47577;43.610;25.010;2023-03-25T11:26:45;99782.78;;;21.14;35.41
61682;BME280;47577;43.610;25.010;2023-03-25T11:29:16;99773.06;;;21.43;36.08
61682;BME280;47577;43.610;25.010;2023-03-25T11:31:42;99767.22;;;21.68;35.05
61682;BME280;47577;43.610;25.010;2023-03-25T11:36:37;99762.84;;;21.87;37.44
61682;BME280;47577;43.610;25.010;2023-03-25T11:39:37;99764.94;;;21.83;36.45
61682;BME280;47577;43.610;25.010;2023-03-25T11:41:55;99770.69;;;22.09;37.54
61682;BME280;47577;43.610;25.010;2023-03-25T11:44:24;99764.00;;;22.04;36.99
61682;BME280;47577;43.610;25.010;2023-03-25T11:46:51;99768.56;;;22.13;36.42
61682;BME280;47577;43.610;25.010;2023-03-25T11:49:19;99755.16;;;22.02;36.25
61682;BME280;47577;43.610;25.010;2023-03-25T11:51:47;99757.00;;;21.91;36.86
61682;BME280;47577;43.610;25.010;2023-03-25T11:54:13;99753.84;;;21.36;37.83
61682;BME280;47577;43.610;25.010;2023-03-25T11:56:41;99747.25;;;21.50;38.88
61682;BME280;47577;43.610;25.010;2023-03-25T11:59:25;99744.06;;;21.45;39.32
61682;BME280;47577;43.610;25.010;2023-03-25T12:02:01;99737.34;;;21.39;39.15
61682;BME280;47577;43.610;25.010;2023-03-25T12:04:29;99731.50;;;21.34;40.02
61682;BME280;47577;43.610;25.010;2023-03-25T12:09:23;99740.72;;;21.31;35.91
61682;BME280;47577;43.610;25.010;2023-03-25T12:11:56;99720.28;;;21.39;36.84
61682;BME280;47577;43.610;25.010;2023-03-25T12:16:54;99723.66;;;21.71;37.87
61682;BME280;47577;43.610;25.010;2023-03-25T12:19:40;99720.50;;;21.57;36.79
61682;BME280;47577;43.610;25.010;2023-03-25T12:24:50;99718.63;;;21.57;36.16
61682;BME280;47577;43.610;25.010;2023-03-25T12:27:38;99718.50;;;21.68;36.58
61682;BME280;47577;43.610;25.010;2023-03-25T12:32:42;99708.09;;;21.64;36.73
61682;BME280;47577;43.610;25.010;2023-03-25T12:48:04;99714.97;;;21.78;36.54
61682;BME280;47577;43.610;25.010;2023-03-25T12:53:05;99707.25;;;21.53;35.35
61682;BME280;47577;43.610;25.010;2023-03-25T13:00:33;99715.03;;;21.47;37.49
61682;BME280;47577;43.610;25.010;2023-03-25T13:03:24;99707.69;;;21.78;35.89
61682;BME280;47577;43.610;25.010;2023-03-25T13:08:50;99714.72;;;21.30;35.83
61682;BME280;47577;43.610;25.010;2023-03-25T13:11:20;99705.94;;;21.07;35.57
61682;BME280;47577;43.610;25.010;2023-03-25T13:13:48;99707.50;;;21.10;37.08
61682;BME280;47577;43.610;25.010;2023-03-25T13:16:17;99711.47;;;20.75;36.78
61682;BME280;47577;43.610;25.010;2023-03-25T13:21:25;99704.41;;;20.62;36.97
61682;BME280;47577;43.610;25.010;2023-03-25T13:23:54;99707.06;;;20.53;37.65
61682;BME280;47577;43.610;25.010;2023-03-25T13:26:24;99709.63;;;20.33;37.74
61682;BME280;47577;43.610;25.010;2023-03-25T13:29:03;99696.41;;;20.30;37.39
61682;BME280;47577;43.610;25.010;2023-03-25T13:31:31;99690.91;;;20.62;37.85
61682;BME280;47577;43.610;25.010;2023-03-25T13:36:44;99696.13;;;20.33;37.63
61682;BME280;47577;43.610;25.010;2023-03-25T13:39:16;99697.91;;;20.44;38.97
61682;BME280;47577;43.610;25.010;2023-03-25T13:41:46;99690.91;;;20.62;39.02
61682;BME280;47577;43.610;25.010;2023-03-25T13:46:41;99692.16;;;20.79;38.91
61682;BME280;47577;43.610;25.010;2023-03-25T13:51:42;99667.94;;;20.47;40.57
61682;BME280;47577;43.610;25.010;2023-03-25T14:14:27;99645.94;;;19.88;41.67
61682;BME280;47577;43.610;25.010;2023-03-25T14:16:57;99642.34;;;19.78;41.99
61682;BME280;47577;43.610;25.010;2023-03-25T14:21:56;99647.22;;;19.73;43.53
61682;BME280;47577;43.610;25.010;2023-03-25T14:24:30;99639.69;;;19.55;45.27
61682;BME280;47577;43.610;25.010;2023-03-25T14:27:06;99643.44;;;19.64;46.00
61682;BME280;47577;43.610;25.010;2023-03-25T14:29:38;99638.09;;;19.53;47.10
61682;BME280;47577;43.610;25.010;2023-03-25T14:32:22;99636.41;;;19.52;46.52
61682;BME280;47577;43.610;25.010;2023-03-25T14:34:49;99627.31;;;19.53;48.35
61682;BME280;47577;43.610;25.010;2023-03-25T14:39:49;99636.16;;;19.55;47.13
61682;BME280;47577;43.610;25.010;2023-03-25T14:47:51;99623.69;;;19.43;46.76
61682;BME280;47577;43.610;25.010;2023-03-25T14:52:49;99622.72;;;19.44;48.27
61682;BME280;47577;43.610;25.010;2023-03-25T14:57:50;99624.91;;;19.39;46.13
61682;BME280;47577;43.610;25.010;2023-03-25T15:01:03;99617.06;;;19.35;48.04
61682;BME280;47577;43.610;25.010;2023-03-25T15:03:14;99618.66;;;19.38;47.71
61682;BME280;47577;43.610;25.010;2023-03-25T15:05:42;99611.56;;;19.37;47.30
61682;BME280;47577;43.610;25.010;2023-03-25T15:10:34;99610.75;;;19.25;46.64
61682;BME280;47577;43.610;25.010;2023-03-25T15:13:02;99619.78;;;19.24;46.28
61682;BME280;47577;43.610;25.010;2023-03-25T15:15:30;99615.19;;;19.15;47.14
61682;BME280;47577;43.610;25.010;2023-03-25T15:17:57;99620.22;;;19.08;45.71
61682;BME280;47577;43.610;25.010;2023-03-25T15:25:33;99622.56;;;18.90;45.59
61682;BME280;47577;43.610;25.010;2023-03-25T15:31:09;99611.06;;;18.88;45.83
61682;BME280;47577;43.610;25.010;2023-03-25T15:38:33;99601.50;;;18.61;47.66